createdAt,value
2022-08-01T00:00:10.476Z,54.63
2022-08-01T00:02:39.706Z,54.83
2022-08-01T00:05:10.055Z,54.80
2022-08-01T00:07:38.702Z,54.42
2022-08-01T00:10:09.019Z,54.66
2022-08-01T00:12:37.079Z,54.30
2022-08-01T00:15:08.179Z,54.71
2022-08-01T00:17:36.308Z,54.91
2022-08-01T00:20:07.470Z,54.81
2022-08-01T00:22:36.014Z,55.70
2022-08-01T00:25:05.701Z,55.65
2022-08-01T00:27:37.585Z,55.70
2022-08-01T00:30:11.682Z,55.16
2022-08-01T00:32:42.371Z,54.78
2022-08-01T00:35:10.887Z,55.08
2022-08-01T00:37:39.025Z,54.73
2022-08-01T00:40:08.964Z,54.80
2022-08-01T00:42:41.519Z,54.83
2022-08-01T00:45:13.512Z,54.67
2022-08-01T00:47:41.609Z,54.94
2022-08-01T00:50:11.104Z,54.96
2022-08-01T00:52:39.600Z,55.42
2022-08-01T00:55:08.505Z,55.05
2022-08-01T00:58:03.323Z,55.86
2022-08-01T01:00:32.907Z,55.50
2022-08-01T01:03:03.369Z,55.83
2022-08-01T01:05:37.338Z,55.40
2022-08-01T01:08:09.239Z,55.47
2022-08-01T01:10:44.717Z,55.66
2022-08-01T01:13:15.488Z,56.49
2022-08-01T01:15:48.339Z,56.24
2022-08-01T01:18:19.850Z,56.71
2022-08-01T01:20:51.689Z,56.25
2022-08-01T01:23:36.881Z,55.65
2022-08-01T01:26:19.827Z,55.67
2022-08-01T01:29:00.161Z,56.21
2022-08-01T01:31:28.441Z,55.71
2022-08-01T01:33:58.009Z,56.20
2022-08-01T01:36:27.115Z,56.14
2022-08-01T01:38:55.884Z,55.77
2022-08-01T01:41:24.449Z,56.06
2022-08-01T01:43:52.760Z,55.92
2022-08-01T01:46:27.981Z,56.02
2022-08-01T01:48:58.363Z,56.23
2022-08-01T01:51:27.855Z,57.21
2022-08-01T01:53:56.423Z,57.67
2022-08-01T01:56:25.427Z,57.85
2022-08-01T01:58:57.217Z,57.90
2022-08-01T02:01:38.681Z,58.71
2022-08-01T02:04:18.187Z,58.79
2022-08-01T02:06:48.443Z,57.94
2022-08-01T02:09:19.433Z,58.20
2022-08-01T02:12:05.005Z,57.97
2022-08-01T02:14:37.177Z,58.02
2022-08-01T02:17:06.894Z,57.83
2022-08-01T02:19:37.881Z,57.89
2022-08-01T02:22:10.060Z,57.57
2022-08-01T02:24:43.199Z,57.47
2022-08-01T02:27:13.237Z,58.05
2022-08-01T02:29:44.007Z,57.86
2022-08-01T02:32:16.997Z,58.48
2022-08-01T02:34:46.508Z,58.28
2022-08-01T02:37:15.140Z,58.38
2022-08-01T02:39:43.417Z,58.61
2022-08-01T02:42:13.476Z,58.10
2022-08-01T02:44:44.269Z,58.27
2022-08-01T02:47:12.344Z,58.22
2022-08-01T02:49:46.369Z,58.12
2022-08-01T02:52:22.731Z,58.32
2022-08-01T02:54:51.902Z,58.32
2022-08-01T02:57:20.677Z,58.28
2022-08-01T02:59:50.229Z,57.98
2022-08-01T03:02:19.268Z,58.08
2022-08-01T03:04:52.709Z,57.90
2022-08-01T03:07:25.751Z,57.57
2022-08-01T03:10:03.758Z,57.70
2022-08-01T03:12:35.114Z,57.88
2022-08-01T03:15:05.334Z,58.04
2022-08-01T03:17:34.589Z,57.39
2022-08-01T03:20:04.991Z,58.59
2022-08-01T03:22:33.861Z,58.38
2022-08-01T03:25:03.710Z,58.63
2022-08-01T03:27:32.010Z,59.07
2022-08-01T03:30:00.542Z,59.19
2022-08-01T03:32:29.301Z,58.58
2022-08-01T03:34:57.551Z,59.09
2022-08-01T03:37:29.025Z,58.79
2022-08-01T03:40:00.834Z,59.51
2022-08-01T03:42:33.714Z,59.63
2022-08-01T03:45:05.187Z,59.72
2022-08-01T03:47:41.923Z,59.79
2022-08-01T03:50:13.848Z,59.79
2022-08-01T03:52:46.036Z,59.56
2022-08-01T03:55:15.121Z,59.98
2022-08-01T03:57:43.523Z,58.87
2022-08-01T04:00:12.463Z,59.10
2022-08-01T04:02:41.050Z,58.66
2022-08-01T04:05:09.827Z,58.81
2022-08-01T04:07:40.041Z,58.90
2022-08-01T04:10:09.870Z,58.81
2022-08-01T04:12:37.936Z,58.70
2022-08-01T04:15:07.603Z,58.61
2022-08-01T04:17:35.645Z,58.84
2022-08-01T04:20:04.372Z,59.21
2022-08-01T04:22:32.689Z,58.80
2022-08-01T04:25:10.244Z,59.70
2022-08-01T04:27:50.612Z,59.67
2022-08-01T04:30:22.456Z,59.75
2022-08-01T04:32:51.871Z,59.73
2022-08-01T04:35:23.327Z,59.76
2022-08-01T04:38:10.851Z,59.44
2022-08-01T04:40:40.441Z,59.67
2022-08-01T04:43:08.973Z,59.69
2022-08-01T04:45:37.716Z,59.65
2022-08-01T04:48:07.796Z,59.45
2022-08-01T04:50:37.153Z,59.96
2022-08-01T04:53:06.149Z,59.48
2022-08-01T04:55:34.264Z,59.15
2022-08-01T04:58:03.713Z,59.26
2022-08-01T05:00:31.798Z,59.24
2022-08-01T05:02:59.969Z,59.04
2022-08-01T05:05:28.260Z,58.81
2022-08-01T05:07:56.928Z,58.68
2022-08-01T05:10:25.075Z,58.67
2022-08-01T05:12:53.147Z,58.99
2022-08-01T05:15:22.607Z,58.63
2022-08-01T05:17:50.902Z,58.81
2022-08-01T05:20:19.026Z,59.23
2022-08-01T05:22:47.147Z,58.89
2022-08-01T05:25:20.228Z,60.04
2022-08-01T05:27:54.808Z,59.16
2022-08-01T05:30:24.474Z,59.26
2022-08-01T05:32:52.587Z,58.77
2022-08-01T05:35:20.985Z,58.54
2022-08-01T05:37:49.081Z,58.66
2022-08-01T05:40:17.129Z,58.41
2022-08-01T05:42:45.189Z,58.03
2022-08-01T05:45:13.284Z,57.96
2022-08-01T05:47:43.006Z,58.24
2022-08-01T05:50:11.523Z,58.70
2022-08-01T05:52:39.601Z,58.24
2022-08-01T05:55:09.021Z,58.31
2022-08-01T05:57:37.465Z,58.70
2022-08-01T06:00:10.818Z,58.55
2022-08-01T06:02:46.063Z,58.39
2022-08-01T06:05:14.269Z,58.25
2022-08-01T06:07:42.628Z,58.01
2022-08-01T06:10:11.164Z,57.68
2022-08-01T06:12:39.971Z,58.11
2022-08-01T06:15:08.843Z,57.20
2022-08-01T06:17:36.990Z,57.85
2022-08-01T06:20:07.728Z,56.59
2022-08-01T06:22:35.881Z,57.13
2022-08-01T06:25:05.431Z,56.95
2022-08-01T06:27:36.261Z,56.33
2022-08-01T06:30:04.784Z,56.31
2022-08-01T06:32:32.856Z,56.18
2022-08-01T06:35:00.971Z,55.54
2022-08-01T06:37:32.864Z,56.11
2022-08-01T06:40:02.864Z,56.92
2022-08-01T06:42:32.602Z,57.37
2022-08-01T06:45:00.718Z,59.42
2022-08-01T06:47:28.880Z,59.29
2022-08-01T06:49:56.948Z,62.21
2022-08-01T06:52:25.611Z,61.92
2022-08-01T06:54:55.246Z,62.00
2022-08-01T06:57:23.304Z,60.96
2022-08-01T06:59:54.174Z,62.71
2022-08-01T07:02:22.863Z,60.22
2022-08-01T07:04:50.923Z,59.87
2022-08-01T07:07:19.019Z,60.53
2022-08-01T07:09:47.123Z,60.74
2022-08-01T07:12:16.598Z,59.91
2022-08-01T07:14:44.824Z,59.43
2022-08-01T07:17:12.905Z,59.56
2022-08-01T07:19:41.091Z,59.41
2022-08-01T07:22:11.049Z,58.47
2022-08-01T07:24:39.136Z,61.04
2022-08-01T07:27:23.768Z,59.51
2022-08-01T07:29:53.914Z,59.02
2022-08-01T07:32:22.068Z,58.85
2022-08-01T07:34:50.133Z,59.83
2022-08-01T07:37:18.283Z,59.38
2022-08-01T07:40:07.415Z,59.66
2022-08-01T07:42:35.463Z,59.84
2022-08-01T07:45:05.799Z,58.49
2022-08-01T07:47:33.834Z,59.46
2022-08-01T07:50:02.728Z,58.76
2022-08-01T07:52:31.261Z,59.15
2022-08-01T07:54:59.667Z,58.18
2022-08-01T07:57:27.852Z,60.24
2022-08-01T07:59:56.448Z,59.13
2022-08-01T08:02:25.952Z,58.79
2022-08-01T08:04:54.145Z,58.32
2022-08-01T08:07:22.272Z,58.87
2022-08-01T08:09:51.269Z,60.74
2022-08-01T08:12:28.917Z,58.28
2022-08-01T08:14:59.363Z,58.76
2022-08-01T08:17:29.107Z,58.57
2022-08-01T08:20:04.216Z,58.12
2022-08-01T08:22:34.651Z,58.98
2022-08-01T08:25:02.745Z,57.50
2022-08-01T08:27:30.903Z,57.40
2022-08-01T08:29:59.008Z,57.28
2022-08-01T08:32:28.489Z,58.20
2022-08-01T08:34:56.534Z,57.57
2022-08-01T08:37:24.560Z,57.52
2022-08-01T08:39:59.558Z,57.60
2022-08-01T08:42:28.023Z,56.65
2022-08-01T08:44:56.345Z,56.58
2022-08-01T08:47:26.703Z,56.00
2022-08-01T08:49:58.155Z,55.34
2022-08-01T08:52:26.349Z,55.36
2022-08-01T08:54:54.650Z,55.92
2022-08-01T08:57:23.328Z,55.95
2022-08-01T08:59:55.168Z,55.02
2022-08-01T09:02:23.697Z,54.77
2022-08-01T09:04:51.939Z,56.49
2022-08-01T09:07:21.547Z,55.13
2022-08-01T09:09:50.287Z,55.22
2022-08-01T09:12:21.317Z,55.93
2022-08-01T09:14:54.347Z,53.25
2022-08-01T09:17:22.812Z,55.50
2022-08-01T09:19:54.404Z,54.47
2022-08-01T09:22:25.474Z,56.15
2022-08-01T09:25:01.837Z,53.51
2022-08-01T09:27:30.554Z,55.29
2022-08-01T09:30:10.412Z,53.76
2022-08-01T09:32:46.076Z,53.58
2022-08-01T09:35:31.054Z,53.63
2022-08-01T09:38:16.464Z,53.55
2022-08-01T09:40:52.881Z,51.91
2022-08-01T09:43:23.047Z,52.52
2022-08-01T09:45:53.452Z,51.76
2022-08-01T09:48:28.563Z,51.45
2022-08-01T09:51:04.722Z,51.74
2022-08-01T09:53:52.385Z,50.54
2022-08-01T09:56:22.887Z,49.49
2022-08-01T09:58:59.909Z,49.46
2022-08-01T10:01:37.045Z,51.05
2022-08-01T10:04:11.534Z,49.42
2022-08-01T10:06:41.520Z,48.35
2022-08-01T10:09:12.074Z,47.08
2022-08-01T10:11:44.878Z,48.13
2022-08-01T10:14:17.897Z,46.91
2022-08-01T10:16:53.687Z,49.13
2022-08-01T10:19:33.758Z,47.94
2022-08-01T10:22:02.705Z,46.98
2022-08-01T10:24:33.327Z,46.99
2022-08-01T10:27:08.266Z,47.16
2022-08-01T10:29:59.304Z,46.25
2022-08-01T10:32:30.790Z,46.00
2022-08-01T10:34:59.387Z,48.35
2022-08-01T10:37:35.983Z,44.18
2022-08-01T10:40:31.238Z,46.13
2022-08-01T10:42:59.974Z,46.71
2022-08-01T10:45:30.626Z,45.99
2022-08-01T10:48:04.745Z,48.45
2022-08-01T10:50:35.647Z,46.04
2022-08-01T10:53:16.721Z,45.52
2022-08-01T10:56:01.358Z,44.99
2022-08-01T10:58:39.481Z,45.21
2022-08-01T11:01:23.795Z,45.85
2022-08-01T11:04:04.898Z,43.88
2022-08-01T11:06:57.075Z,43.56
2022-08-01T11:09:41.405Z,41.93
2022-08-01T11:12:20.418Z,43.98
2022-08-01T11:15:31.047Z,44.56
2022-08-01T11:18:06.050Z,45.59
2022-08-01T11:20:36.012Z,44.82
2022-08-01T11:23:29.763Z,44.59
2022-08-01T11:26:11.680Z,45.03
2022-08-01T11:28:50.364Z,43.08
2022-08-01T11:31:36.969Z,43.86
2022-08-01T11:34:05.387Z,45.16
2022-08-01T11:36:57.689Z,45.92
2022-08-01T11:39:21.868Z,43.76
2022-08-01T11:41:50.684Z,42.46
2022-08-01T11:44:24.812Z,43.24
2022-08-01T11:47:03.078Z,43.10
2022-08-01T11:49:50.436Z,42.98
2022-08-01T11:52:20.759Z,41.91
2022-08-01T11:54:50.691Z,44.67
2022-08-01T11:57:23.057Z,45.36
2022-08-01T12:00:03.427Z,42.81
2022-08-01T12:02:41.369Z,44.22
2022-08-01T12:05:14.062Z,44.06
2022-08-01T12:07:43.638Z,43.58
2022-08-01T12:10:13.731Z,44.25
2022-08-01T12:12:45.628Z,44.31
2022-08-01T12:15:15.534Z,44.98
2022-08-01T12:17:45.833Z,45.55
2022-08-01T12:20:30.363Z,44.31
2022-08-01T12:22:59.169Z,43.21
2022-08-01T12:25:27.297Z,43.16
2022-08-01T12:27:56.907Z,43.22
2022-08-01T12:30:27.909Z,42.87
2022-08-01T12:32:56.983Z,44.32
2022-08-01T12:35:26.745Z,43.08
2022-08-01T12:37:56.207Z,41.46
2022-08-01T12:40:25.639Z,40.90
2022-08-01T12:42:55.416Z,42.72
2022-08-01T12:45:25.393Z,42.88
2022-08-01T12:47:56.030Z,41.24
2022-08-01T12:50:26.210Z,41.69
2022-08-01T12:52:54.872Z,42.83
2022-08-01T12:55:25.229Z,42.22
2022-08-01T12:58:06.631Z,42.28
2022-08-01T13:00:35.359Z,41.59
2022-08-01T13:03:06.992Z,42.63
2022-08-01T13:05:46.091Z,42.87
2022-08-01T13:08:14.967Z,43.15
2022-08-01T13:10:43.887Z,41.67
2022-08-01T13:13:22.316Z,42.44
2022-08-01T13:16:05.304Z,42.66
2022-08-01T13:18:35.811Z,42.36
2022-08-01T13:21:11.720Z,42.60
2022-08-01T13:24:02.052Z,43.83
2022-08-01T13:26:40.318Z,41.74
2022-08-01T13:29:09.097Z,40.15
2022-08-01T13:31:37.898Z,42.69
2022-08-01T13:34:07.535Z,43.16
2022-08-01T13:36:36.616Z,43.10
2022-08-01T13:39:23.676Z,45.00
2022-08-01T13:41:52.052Z,43.10
2022-08-01T13:44:20.227Z,43.70
2022-08-01T13:46:49.659Z,42.98
2022-08-01T13:49:20.880Z,40.85
2022-08-01T13:51:52.002Z,41.00
2022-08-01T13:54:20.677Z,38.74
2022-08-01T13:56:49.050Z,42.74
2022-08-01T13:59:17.206Z,41.82
2022-08-01T14:01:45.446Z,40.52
2022-08-01T14:04:13.615Z,39.61
2022-08-01T14:06:43.314Z,41.53
2022-08-01T14:09:17.849Z,43.22
2022-08-01T14:11:52.070Z,44.04
2022-08-01T14:14:20.169Z,40.46
2022-08-01T14:16:49.184Z,41.18
2022-08-01T14:19:19.356Z,39.57
2022-08-01T14:22:06.579Z,38.42
2022-08-01T14:24:34.734Z,39.40
2022-08-01T14:27:03.229Z,39.51
2022-08-01T14:30:00.185Z,40.18
2022-08-01T14:32:19.375Z,40.76
2022-08-01T14:34:51.278Z,39.92
2022-08-01T14:37:20.769Z,37.26
2022-08-01T14:39:54.577Z,41.16
2022-08-01T14:42:23.022Z,36.97
2022-08-01T14:44:51.079Z,39.13
2022-08-01T14:47:21.535Z,37.29
2022-08-01T14:49:50.485Z,38.34
2022-08-01T14:52:20.564Z,39.23
2022-08-01T14:54:48.779Z,41.03
2022-08-01T14:57:19.231Z,36.00
2022-08-01T14:59:48.307Z,38.37
2022-08-01T15:02:18.234Z,40.12
2022-08-01T15:04:46.560Z,39.55
2022-08-01T15:07:15.216Z,39.08
2022-08-01T15:09:45.076Z,38.23
2022-08-01T15:12:13.635Z,41.22
2022-08-01T15:14:50.939Z,41.92
2022-08-01T15:17:20.531Z,42.04
2022-08-01T15:19:53.577Z,41.91
2022-08-01T15:22:22.413Z,43.75
2022-08-01T15:24:57.100Z,43.17
2022-08-01T15:27:28.081Z,43.18
2022-08-01T15:29:57.104Z,43.31
2022-08-01T15:32:25.648Z,43.40
2022-08-01T15:34:53.960Z,43.28
2022-08-01T15:37:23.070Z,42.89
2022-08-01T15:39:54.717Z,44.44
2022-08-01T15:42:25.521Z,43.09
2022-08-01T15:44:55.478Z,43.81
2022-08-01T15:47:24.915Z,43.82
2022-08-01T15:49:53.412Z,43.86
2022-08-01T15:52:23.195Z,44.37
2022-08-01T15:55:00.434Z,45.03
2022-08-01T15:57:28.553Z,45.60
2022-08-01T15:59:56.642Z,44.88
2022-08-01T16:02:24.815Z,46.69
2022-08-01T16:04:52.935Z,48.30
2022-08-01T16:07:21.242Z,51.21
2022-08-01T16:09:49.805Z,50.62
2022-08-01T16:12:19.290Z,52.64
2022-08-01T16:14:48.108Z,54.75
2022-08-01T16:17:16.204Z,56.76
2022-08-01T16:19:44.617Z,56.36
2022-08-01T16:22:12.720Z,56.99
2022-08-01T16:24:41.272Z,55.50
2022-08-01T16:27:09.725Z,57.19
2022-08-01T16:29:39.399Z,59.22
2022-08-01T16:32:16.421Z,59.53
2022-08-01T16:34:52.030Z,59.17
2022-08-01T16:37:20.093Z,59.82
2022-08-01T16:39:48.254Z,59.16
2022-08-01T16:42:16.303Z,60.57
2022-08-01T16:44:45.927Z,59.65
2022-08-01T16:47:14.001Z,60.24
2022-08-01T16:49:42.170Z,59.72
2022-08-01T16:52:10.623Z,59.91
2022-08-01T16:54:39.001Z,60.54
2022-08-01T16:57:07.930Z,60.84
2022-08-01T16:59:41.291Z,60.75
2022-08-01T17:02:11.815Z,61.03
2022-08-01T17:05:07.034Z,61.65
2022-08-01T17:07:37.461Z,61.19
2022-08-01T17:10:06.761Z,60.70
2022-08-01T17:12:35.693Z,59.59
2022-08-01T17:15:04.936Z,59.76
2022-08-01T17:17:34.455Z,60.22
2022-08-01T17:20:02.940Z,60.59
2022-08-01T17:22:31.034Z,60.36
2022-08-01T17:24:59.055Z,60.58
2022-08-01T17:27:27.347Z,60.93
2022-08-01T17:29:55.432Z,60.49
2022-08-01T17:32:23.570Z,60.49
2022-08-01T17:34:52.970Z,60.14
2022-08-01T17:37:21.057Z,60.24
2022-08-01T17:39:49.184Z,60.66
2022-08-01T17:42:17.233Z,60.78
2022-08-01T17:44:48.775Z,61.39
2022-08-01T17:47:50.714Z,61.90
2022-08-01T17:50:20.969Z,62.12
2022-08-01T17:52:49.370Z,62.53
2022-08-01T17:55:53.359Z,62.63
2022-08-01T17:58:06.046Z,62.19
2022-08-01T18:00:34.818Z,61.50
2022-08-01T18:03:02.911Z,63.38
2022-08-01T18:05:38.367Z,63.34
2022-08-01T18:08:07.494Z,63.54
2022-08-01T18:10:35.644Z,64.84
2022-08-01T18:13:08.233Z,63.84
2022-08-01T18:15:37.589Z,63.32
2022-08-01T18:18:06.189Z,63.58
2022-08-01T18:20:35.305Z,64.04
2022-08-01T18:23:08.699Z,64.24
2022-08-01T18:25:36.889Z,63.44
2022-08-01T18:28:22.487Z,63.96
2022-08-01T18:30:53.706Z,63.94
2022-08-01T18:33:21.825Z,64.21
2022-08-01T18:35:51.959Z,64.49
2022-08-01T18:38:24.178Z,64.64
2022-08-01T18:40:52.959Z,64.62
2022-08-01T18:43:21.024Z,64.20
2022-08-01T18:45:49.099Z,64.74
2022-08-01T18:48:17.173Z,64.35
2022-08-01T18:50:45.286Z,64.49
2022-08-01T18:53:13.332Z,64.10
2022-08-01T18:55:42.765Z,64.67
2022-08-01T18:58:10.815Z,64.71
2022-08-01T19:00:39.908Z,64.94
2022-08-01T19:03:08.133Z,65.40
2022-08-01T19:05:36.507Z,65.62
2022-08-01T19:08:07.750Z,65.62
2022-08-01T19:10:36.464Z,65.30
2022-08-01T19:13:05.917Z,65.38
2022-08-01T19:15:34.184Z,65.59
2022-08-01T19:18:02.319Z,65.53
2022-08-01T19:20:30.627Z,65.79
2022-08-01T19:22:58.957Z,66.22
2022-08-01T19:25:27.180Z,66.48
2022-08-01T19:27:57.714Z,66.50
2022-08-01T19:30:27.643Z,65.36
2022-08-01T19:32:56.423Z,64.90
2022-08-01T19:35:25.576Z,65.04
2022-08-01T19:37:54.164Z,65.00
2022-08-01T19:40:26.698Z,65.22
2022-08-01T19:42:57.677Z,65.27
2022-08-01T19:45:29.811Z,65.45
2022-08-01T19:47:58.254Z,66.63
2022-08-01T19:50:27.144Z,66.02
2022-08-01T19:52:57.512Z,65.48
2022-08-01T19:55:26.377Z,65.52
2022-08-01T19:58:24.156Z,66.11
2022-08-01T20:00:44.453Z,64.96
2022-08-01T20:03:13.929Z,65.12
2022-08-01T20:05:42.113Z,64.66
2022-08-01T20:08:10.585Z,64.25
2022-08-01T20:10:39.145Z,64.37
2022-08-01T20:13:07.806Z,64.12
2022-08-01T20:15:35.866Z,64.41
2022-08-01T20:18:05.490Z,63.63
2022-08-01T20:20:35.225Z,63.28
2022-08-01T20:23:04.396Z,62.52
2022-08-01T20:25:40.113Z,62.39
2022-08-01T20:28:10.423Z,62.74
2022-08-01T20:30:38.815Z,63.11
2022-08-01T20:33:09.701Z,63.27
2022-08-01T20:35:52.095Z,62.97
2022-08-01T20:38:23.901Z,63.35
2022-08-01T20:40:53.449Z,63.30
2022-08-01T20:43:22.517Z,63.35
2022-08-01T20:45:51.904Z,63.16
2022-08-01T20:48:21.480Z,63.49
2022-08-01T20:51:08.018Z,63.15
2022-08-01T20:53:40.871Z,63.85
2022-08-01T20:56:13.174Z,63.62
2022-08-01T20:58:49.187Z,63.61
2022-08-01T21:01:22.338Z,64.10
2022-08-01T21:03:59.681Z,64.93
2022-08-01T21:06:34.429Z,64.79
2022-08-01T21:09:05.051Z,65.75
2022-08-01T21:11:40.373Z,66.22
2022-08-01T21:14:13.324Z,65.01
2022-08-01T21:16:43.305Z,65.39
2022-08-01T21:19:19.942Z,66.39
2022-08-01T21:21:52.361Z,65.97
2022-08-01T21:24:24.008Z,65.64
2022-08-01T21:26:53.100Z,65.69
2022-08-01T21:29:22.457Z,66.21
2022-08-01T21:32:11.507Z,66.04
2022-08-01T21:34:41.443Z,65.67
2022-08-01T21:37:10.816Z,66.11
2022-08-01T21:39:39.655Z,65.66
2022-08-01T21:42:18.145Z,65.37
2022-08-01T21:44:47.896Z,65.81
2022-08-01T21:47:16.736Z,68.14
2022-08-01T21:49:46.274Z,67.66
2022-08-01T21:52:18.176Z,66.77
2022-08-01T21:54:58.524Z,68.30
2022-08-01T21:57:39.089Z,68.10
2022-08-01T22:00:11.624Z,68.03
2022-08-01T22:02:54.031Z,67.70
2022-08-01T22:05:49.923Z,68.11
2022-08-01T22:08:18.056Z,68.42
2022-08-01T22:10:46.151Z,68.68
2022-08-01T22:13:14.360Z,68.64
2022-08-01T22:15:44.642Z,68.97
2022-08-01T22:18:13.367Z,68.88
2022-08-01T22:20:43.040Z,69.67
2022-08-01T22:23:11.217Z,70.00
2022-08-01T22:25:39.653Z,70.24
2022-08-01T22:28:09.223Z,68.95
2022-08-01T22:30:41.663Z,69.38
2022-08-01T22:33:16.045Z,69.34
2022-08-01T22:35:47.476Z,69.50
2022-08-01T22:38:15.852Z,69.47
2022-08-01T22:40:50.373Z,68.61
2022-08-01T22:43:39.351Z,69.10
2022-08-01T22:46:17.375Z,69.66
2022-08-01T22:48:47.560Z,69.25
2022-08-01T22:51:28.127Z,69.06
2022-08-01T22:54:04.408Z,68.13
2022-08-01T22:56:36.153Z,67.81
2022-08-01T22:59:07.563Z,67.03
2022-08-01T23:01:36.863Z,68.21
2022-08-01T23:04:05.934Z,68.12
2022-08-01T23:06:40.197Z,67.40
2022-08-01T23:09:08.715Z,67.89
2022-08-01T23:11:38.405Z,68.88
2022-08-01T23:14:06.575Z,69.01
2022-08-01T23:16:36.683Z,70.87
2022-08-01T23:19:05.000Z,71.27
2022-08-01T23:21:33.345Z,70.31
2022-08-01T23:24:03.130Z,71.00
2022-08-01T23:26:31.637Z,70.87
2022-08-01T23:28:59.716Z,70.22
2022-08-01T23:31:55.321Z,69.52
2022-08-01T23:34:19.712Z,70.00
2022-08-01T23:36:48.416Z,68.68
2022-08-01T23:39:17.882Z,68.52
2022-08-01T23:42:07.798Z,68.36
2022-08-01T23:44:34.036Z,68.54
2022-08-01T23:47:02.497Z,68.41
2022-08-01T23:49:30.769Z,68.65
2022-08-01T23:51:59.184Z,69.02
2022-08-01T23:54:28.714Z,70.98
2022-08-01T23:56:58.892Z,70.45
2022-08-01T23:59:52.486Z,69.93
